Shawano, WI

3:27 AM CST on November 18, 2017 (GMT -0600)
Shawano

Weather History for KEZS - October, 2013

Change the Weather History Date:

Monday, October 28, 2013

  Actual Average (KCLI) Record (KCLI)
Temperature  
Mean Temperature 36 °F -  
Max Temperature 43 °F 55 °F 76 °F (1989)
Min Temperature 29 °F 33 °F 15 °F (1976)
Degree Days  
Heating Degree Days 29    
Moisture  
Dew Point 25 °F    
Average Humidity 62    
Maximum Humidity 79    
Minimum Humidity 44    
Precipitation  
Precipitation 0.00 in - - ()
Sea Level Pressure  
Sea Level Pressure 30.37 in    
Wind  
Wind Speed 13 mph (NE)    
Max Wind Speed 22 mph    
Max Gust Speed 30 mph    
Visibility 10 miles    
Events      
Averages and records for this station are not official NWS values.
T = Trace of Precipitation, MM = Missing Value Source: NWS Daily Summary

Daily Weather History Graph

Daily Weather History Graph

Search for Another Location

Airport or City:

Trip Planner

Search our weather history database for the weather conditions in past years. The results will help you decide how hot, cold, wet, or windy it might be!

Date:

Astronomy

Oct. 28, 2013 Rise Set
Actual Time 7:27 AM CDT 5:48 PM CDT
Civil Twilight 6:56 AM CDT 6:18 PM CDT
Nautical Twilight 6:22 AM CDT 6:52 PM CDT
Astronomical Twilight 5:48 AM CDT 7:26 PM CDT
Moon 1:05 AM CDT (10/28) 2:43 PM CDT (10/28)
Length of Visible Light 11h 21m
Length of Day
10h 20m
Waning Crescent, 34% of the Moon is Illuminated
Oct 28
Waning Crescent
Nov 3
New
Nov 9
First Quarter
Nov 17
Full
Nov 25
Last Quarter

Hourly Weather History & Observations

Time (CDT) Temp. Windchill Dew Point Humidity Pressure Visibility Wind Dir Wind Speed Gust Speed Precip Events Conditions
12:15 AM 42.8 °F 35.1 °F 32.4 °F 67% 30.09 in 10.0 mi NNE 16.1 mph 20.7 mph N/A   Mostly Cloudy
12:35 AM 43.0 °F 34.2 °F 32.7 °F 67% 30.11 in 10.0 mi NE 20.7 mph 26.5 mph N/A   Overcast
12:55 AM 42.4 °F 34.4 °F 32.0 °F 67% 30.12 in 10.0 mi NNE 17.3 mph 26.5 mph N/A   Overcast
1:15 AM 42.4 °F 34.4 °F 32.2 °F 67% 30.13 in 10.0 mi NNE 17.3 mph 23.0 mph N/A   Overcast
1:35 AM 42.3 °F 34.1 °F 32.2 °F 67% 30.14 in 10.0 mi NNE 17.3 mph 20.7 mph N/A   Overcast
1:55 AM 41.9 °F 33.4 °F 31.8 °F 67% 30.16 in 10.0 mi NE 18.4 mph 28.8 mph N/A   Overcast
2:15 AM 41.2 °F 31.6 °F 30.6 °F 66% 30.17 in 10.0 mi NNE 21.9 mph 26.5 mph N/A   Overcast
2:35 AM 40.3 °F 30.4 °F 29.5 °F 65% 30.19 in 10.0 mi NE 21.9 mph 29.9 mph N/A   Overcast
2:55 AM 39.7 °F 30.3 °F 28.8 °F 65% 30.20 in 10.0 mi NNE 19.6 mph 25.3 mph N/A   Overcast
3:15 AM 39.2 °F 30.2 °F 28.2 °F 65% 30.22 in 10.0 mi NNE 17.3 mph 23.0 mph N/A   Overcast
3:35 AM 38.8 °F 29.1 °F 28.2 °F 66% 30.22 in 10.0 mi NNE 19.6 mph - N/A   Overcast
3:55 AM 37.6 °F 28.8 °F 28.4 °F 69% 30.23 in 10.0 mi NNE 15.0 mph 19.6 mph N/A   Overcast
4:15 AM 36.7 °F 26.9 °F 27.3 °F 69% 30.24 in 10.0 mi NNE 17.3 mph - N/A   Scattered Clouds
4:35 AM 36.5 °F 27.8 °F 26.8 °F 68% 30.26 in 10.0 mi NNE 13.8 mph - N/A   Clear
4:55 AM 35.6 °F 27.1 °F 26.6 °F 70% 30.27 in 10.0 mi NNE 12.7 mph - N/A   Clear
5:15 AM 35.2 °F 26.6 °F 27.0 °F 72% 30.29 in 10.0 mi NNE 12.7 mph - N/A   Clear
5:35 AM 35.2 °F 26.6 °F 26.8 °F 71% 30.29 in 10.0 mi NNE 12.7 mph - N/A   Scattered Clouds
5:55 AM 34.7 °F 25.9 °F 26.4 °F 72% 30.30 in 10.0 mi NNE 12.7 mph - N/A   Scattered Clouds
6:15 AM 33.8 °F 23.9 °F 26.1 °F 73% 30.31 in 10.0 mi NNE 15.0 mph - N/A   Clear
6:35 AM 33.3 °F 24.6 °F 25.7 °F 74% 30.31 in 10.0 mi NNE 11.5 mph 17.3 mph N/A   Clear
6:55 AM 32.9 °F 23.7 °F 25.3 °F 74% 30.32 in 10.0 mi NNE 12.7 mph - N/A   Clear
7:15 AM 32.9 °F 23.7 °F 24.8 °F 72% 30.34 in 10.0 mi NNE 12.7 mph - N/A   Clear
7:35 AM 32.9 °F 22.8 °F 24.6 °F 72% 30.34 in 10.0 mi NNE 15.0 mph - N/A   Clear
7:55 AM 32.9 °F 22.4 °F 24.3 °F 71% 30.36 in 10.0 mi NNE 16.1 mph 19.6 mph N/A   Clear
8:15 AM 33.6 °F 23.7 °F 24.3 °F 69% 30.37 in 10.0 mi NNE 15.0 mph - N/A   Clear
8:35 AM 34.0 °F 24.6 °F 24.3 °F 68% 30.38 in 10.0 mi NNE 13.8 mph 19.6 mph N/A   Clear
8:55 AM 34.7 °F 25.1 °F 24.1 °F 65% 30.39 in 10.0 mi NNE 15.0 mph 23.0 mph N/A   Clear
9:15 AM 35.6 °F 26.6 °F 23.9 °F 62% 30.40 in 10.0 mi NE 13.8 mph 21.9 mph N/A   Clear
9:35 AM 35.6 °F 26.2 °F 23.9 °F 62% 30.41 in 10.0 mi NNE 15.0 mph 24.2 mph N/A   Mostly Cloudy
9:55 AM 36.7 °F 28.4 °F 24.3 °F 61% 30.41 in 10.0 mi NE 12.7 mph 23.0 mph N/A   Overcast
10:15 AM 37.8 °F 28.6 °F 23.7 °F 57% 30.42 in 10.0 mi NE 16.1 mph 21.9 mph N/A   Mostly Cloudy
10:35 AM 38.5 °F 31.1 °F 23.5 °F 55% 30.43 in 10.0 mi NE 11.5 mph 19.6 mph N/A   Mostly Cloudy
10:55 AM 39.2 °F 31.2 °F 24.1 °F 55% 30.44 in 10.0 mi NE 13.8 mph 18.4 mph N/A   Scattered Clouds
11:15 AM 40.1 °F 32.7 °F 24.6 °F 54% 30.45 in 10.0 mi NE 12.7 mph 17.3 mph N/A   Scattered Clouds
11:35 AM 40.5 °F 32.5 °F 24.6 °F 53% 30.45 in 10.0 mi ENE 15.0 mph 18.4 mph N/A   Scattered Clouds
11:55 AM 40.1 °F 32.7 °F 23.5 °F 52% 30.46 in 10.0 mi ENE 12.7 mph 18.4 mph N/A   Mostly Cloudy
12:15 PM 40.8 °F 34.5 °F 23.9 °F 51% 30.45 in 10.0 mi ENE 10.4 mph 19.6 mph N/A   Mostly Cloudy
12:35 PM 41.2 °F 34.5 °F 23.9 °F 50% 30.45 in 10.0 mi NE 11.5 mph - N/A   Mostly Cloudy
12:55 PM 42.6 °F 36.8 °F 23.5 °F 47% 30.44 in 10.0 mi ENE 10.4 mph - N/A   Mostly Cloudy
1:15 PM 42.1 °F 35.7 °F 23.2 °F 47% 30.43 in 10.0 mi East 11.5 mph 16.1 mph N/A   Scattered Clouds
1:35 PM 42.8 °F 37.0 °F 23.5 °F 47% 30.42 in 10.0 mi ENE 10.4 mph - N/A   Clear
1:55 PM 42.8 °F 37.0 °F 23.7 °F 47% 30.42 in 10.0 mi ENE 10.4 mph - N/A   Scattered Clouds
2:15 PM 42.4 °F 36.1 °F 23.4 °F 47% 30.42 in 10.0 mi ENE 11.5 mph - N/A   Scattered Clouds
2:35 PM 42.8 °F 37.0 °F 23.0 °F 46% 30.42 in 10.0 mi ENE 10.4 mph - N/A   Clear
2:55 PM 43.0 °F 37.7 °F 23.2 °F 46% 30.41 in 10.0 mi ENE 9.2 mph - N/A   Clear
3:15 PM 42.8 °F 38.0 °F 23.2 °F 46% 30.41 in 10.0 mi ENE 8.1 mph - N/A   Clear
3:35 PM 42.4 °F 37.5 °F 23.4 °F 47% 30.42 in 10.0 mi NE 8.1 mph - N/A   Clear
3:55 PM 42.4 °F 38.1 °F 22.3 °F 45% 30.42 in 10.0 mi NE 6.9 mph - N/A   Clear
4:15 PM 42.1 °F 38.4 °F 21.9 °F 45% 30.42 in 10.0 mi ENE 5.8 mph - N/A   Clear
4:35 PM 41.2 °F 36.6 °F 21.7 °F 46% 30.41 in 10.0 mi ENE 6.9 mph - N/A   Clear
4:55 PM 41.0 °F 36.4 °F 20.3 °F 44% 30.41 in 10.0 mi ENE 6.9 mph - N/A   Clear
5:15 PM 40.1 °F 34.7 °F 20.3 °F 45% 30.41 in 10.0 mi East 8.1 mph - N/A   Clear
5:35 PM 38.5 °F 32.7 °F 19.9 °F 47% 30.42 in 10.0 mi East 8.1 mph - N/A   Clear
5:55 PM 35.4 °F 30.5 °F 20.1 °F 54% 30.42 in 10.0 mi ESE 5.8 mph - N/A   Clear
6:15 PM 33.8 °F 30.8 °F 19.9 °F 57% 30.43 in 10.0 mi ESE 3.5 mph - N/A   Clear
6:35 PM 35.2 °F 32.4 °F 20.1 °F 54% 30.44 in 10.0 mi ESE 3.5 mph - N/A   Clear
6:55 PM 32.0 °F 28.7 °F 20.8 °F 63% 30.45 in 10.0 mi ESE 3.5 mph - N/A   Clear
7:15 PM 32.2 °F - 21.4 °F 64% 30.46 in 10.0 mi Calm Calm - N/A   Clear
7:35 PM 32.2 °F - 21.7 °F 65% 30.46 in 10.0 mi Calm Calm - N/A   Clear
7:55 PM 31.8 °F - 21.9 °F 67% 30.45 in 10.0 mi Calm Calm - N/A   Clear
8:15 PM 32.0 °F - 22.3 °F 67% 30.45 in 10.0 mi Calm Calm - N/A   Clear
8:35 PM 32.0 °F - 22.1 °F 67% 30.45 in 10.0 mi Calm Calm - N/A   Clear
8:55 PM 31.8 °F - 21.9 °F 67% 30.45 in 10.0 mi Calm Calm - N/A   Clear
9:15 PM 30.6 °F - 23.5 °F 75% 30.45 in 10.0 mi Calm Calm - N/A   Clear
9:35 PM 29.7 °F - 22.1 °F 73% 30.45 in 10.0 mi Calm Calm - N/A   Clear
9:55 PM 30.2 °F - 22.1 °F 72% 30.46 in 10.0 mi Calm Calm - N/A   Clear
10:15 PM 30.7 °F - 22.8 °F 72% 30.46 in 10.0 mi Calm Calm - N/A   Clear
10:35 PM 29.3 °F - 23.5 °F 79% 30.46 in 10.0 mi Calm Calm - N/A   Clear
10:55 PM 30.4 °F 22.9 °F 22.8 °F 73% 30.46 in 10.0 mi ENE 8.1 mph - N/A   Clear
11:15 PM 33.3 °F 27.9 °F 23.4 °F 67% 30.46 in 10.0 mi ENE 5.8 mph - N/A   Clear
11:35 PM 32.9 °F 27.5 °F 23.0 °F 67% 30.46 in 10.0 mi ENE 5.8 mph - N/A   Clear
11:55 PM 31.1 °F 26.4 °F 23.4 °F 73% 30.46 in 10.0 mi NNE 4.6 mph - N/A   Clear